sensor_id;sensor_type;location;lat;lon;timestamp;temperature;humidity
43995;DHT22;51687;52.160;5.298;2024-03-25T05:30:35;9.70;67.10
43995;DHT22;51687;52.160;5.298;2024-03-25T05:33:01;7.70;65.90
43995;DHT22;51687;52.160;5.298;2024-03-25T05:35:26;7.60;65.20
43995;DHT22;51687;52.160;5.298;2024-03-25T05:37:53;7.60;65.30
43995;DHT22;51687;52.160;5.298;2024-03-25T05:40:19;7.60;65.40
43995;DHT22;51687;52.160;5.298;2024-03-25T05:42:45;7.50;65.30
43995;DHT22;51687;52.160;5.298;2024-03-25T05:45:11;7.50;65.30
43995;DHT22;51687;52.160;5.298;2024-03-25T05:47:37;7.50;65.60
43995;DHT22;51687;52.160;5.298;2024-03-25T05:50:06;7.50;65.80
43995;DHT22;51687;52.160;5.298;2024-03-25T05:52:32;7.50;65.80
43995;DHT22;51687;52.160;5.298;2024-03-25T05:54:59;7.50;65.90
43995;DHT22;51687;52.160;5.298;2024-03-25T05:57:24;7.50;65.90
43995;DHT22;51687;52.160;5.298;2024-03-25T05:59:50;7.50;65.90
43995;DHT22;51687;52.160;5.298;2024-03-25T06:02:16;7.50;66.20
43995;DHT22;51687;52.160;5.298;2024-03-25T06:04:43;7.50;66.20
43995;DHT22;51687;52.160;5.298;2024-03-25T06:07:08;7.50;66.10
43995;DHT22;51687;52.160;5.298;2024-03-25T06:09:34;7.50;66.20
43995;DHT22;51687;52.160;5.298;2024-03-25T06:12:00;7.50;66.40
43995;DHT22;51687;52.160;5.298;2024-03-25T06:14:26;7.50;66.40
43995;DHT22;51687;52.160;5.298;2024-03-25T06:16:52;7.50;66.50
43995;DHT22;51687;52.160;5.298;2024-03-25T06:19:17;7.50;66.70
43995;DHT22;51687;52.160;5.298;2024-03-25T06:21:43;7.50;66.90
43995;DHT22;51687;52.160;5.298;2024-03-25T06:24:10;7.50;67.00
43995;DHT22;51687;52.160;5.298;2024-03-25T06:26:37;7.50;67.20
43995;DHT22;51687;52.160;5.298;2024-03-25T06:29:02;7.50;67.30
43995;DHT22;51687;52.160;5.298;2024-03-25T06:31:28;7.50;67.40
43995;DHT22;51687;52.160;5.298;2024-03-25T06:34:20;7.50;67.60
43995;DHT22;51687;52.160;5.298;2024-03-25T06:36:50;7.50;67.80
43995;DHT22;51687;52.160;5.298;2024-03-25T06:39:16;7.50;68.00
43995;DHT22;51687;52.160;5.298;2024-03-25T06:41:42;7.50;68.20
43995;DHT22;51687;52.160;5.298;2024-03-25T06:44:08;7.50;68.40
43995;DHT22;51687;52.160;5.298;2024-03-25T06:46:34;7.50;68.60
43995;DHT22;51687;52.160;5.298;2024-03-25T06:49:00;7.60;69.00
43995;DHT22;51687;52.160;5.298;2024-03-25T06:51:26;7.60;69.20
43995;DHT22;51687;52.160;5.298;2024-03-25T06:53:52;7.60;69.60
43995;DHT22;51687;52.160;5.298;2024-03-25T06:56:18;7.60;70.20
43995;DHT22;51687;52.160;5.298;2024-03-25T06:58:44;7.60;70.50
43995;DHT22;51687;52.160;5.298;2024-03-25T07:01:10;7.70;71.10
43995;DHT22;51687;52.160;5.298;2024-03-25T07:03:39;7.70;71.40
43995;DHT22;51687;52.160;5.298;2024-03-25T07:06:05;7.70;71.80
43995;DHT22;51687;52.160;5.298;2024-03-25T07:08:31;7.80;72.20
43995;DHT22;51687;52.160;5.298;2024-03-25T07:10:57;7.90;73.40
43995;DHT22;51687;52.160;5.298;2024-03-25T07:13:24;7.90;73.10
43995;DHT22;51687;52.160;5.298;2024-03-25T07:15:50;8.00;73.20
43995;DHT22;51687;52.160;5.298;2024-03-25T07:18:16;8.10;73.40
43995;DHT22;51687;52.160;5.298;2024-03-25T07:20:43;8.10;73.50
43995;DHT22;51687;52.160;5.298;2024-03-25T07:23:10;8.20;73.60
43995;DHT22;51687;52.160;5.298;2024-03-25T07:25:36;8.20;73.70
43995;DHT22;51687;52.160;5.298;2024-03-25T07:28:03;8.30;73.90
43995;DHT22;51687;52.160;5.298;2024-03-25T07:30:29;8.40;74.10
43995;DHT22;51687;52.160;5.298;2024-03-25T07:32:56;8.40;74.20
43995;DHT22;51687;52.160;5.298;2024-03-25T07:35:22;8.40;74.20
43995;DHT22;51687;52.160;5.298;2024-03-25T07:37:48;8.50;74.00
43995;DHT22;51687;52.160;5.298;2024-03-25T07:40:17;8.50;73.90
43995;DHT22;51687;52.160;5.298;2024-03-25T07:42:43;8.60;73.60
43995;DHT22;51687;52.160;5.298;2024-03-25T07:45:10;8.60;73.60
43995;DHT22;51687;52.160;5.298;2024-03-25T07:47:36;8.70;73.70
43995;DHT22;51687;52.160;5.298;2024-03-25T13:02:50;13.90;51.00
43995;DHT22;51687;52.160;5.298;2024-03-25T13:05:16;14.90;48.50
43995;DHT22;51687;52.160;5.298;2024-03-25T13:07:42;14.90;47.20
43995;DHT22;51687;52.160;5.298;2024-03-25T13:10:08;14.90;45.90
43995;DHT22;51687;52.160;5.298;2024-03-25T13:12:34;14.90;46.30
43995;DHT22;51687;52.160;5.298;2024-03-25T13:15:00;15.00;47.60
43995;DHT22;51687;52.160;5.298;2024-03-25T13:17:26;15.00;44.70
43995;DHT22;51687;52.160;5.298;2024-03-25T17:28:55;15.10;44.10
43995;DHT22;51687;52.160;5.298;2024-03-25T18:42:14;16.40;38.30
43995;DHT22;51687;52.160;5.298;2024-03-25T18:44:41;15.20;42.90
43995;DHT22;51687;52.160;5.298;2024-03-25T18:47:07;15.10;43.80
43995;DHT22;51687;52.160;5.298;2024-03-25T18:49:33;15.10;43.50
43995;DHT22;51687;52.160;5.298;2024-03-25T18:51:59;15.00;43.60
43995;DHT22;51687;52.160;5.298;2024-03-25T18:56:53;15.00;44.00
43995;DHT22;51687;52.160;5.298;2024-03-25T18:59:19;14.90;44.70
43995;DHT22;51687;52.160;5.298;2024-03-25T19:38:18;14.80;43.80
43995;DHT22;51687;52.160;5.298;2024-03-25T19:40:44;14.20;45.20
43995;DHT22;51687;52.160;5.298;2024-03-25T19:43:10;14.20;45.50
43995;DHT22;51687;52.160;5.298;2024-03-25T19:45:36;14.10;45.70
43995;DHT22;51687;52.160;5.298;2024-03-25T19:48:02;14.10;45.10
43995;DHT22;51687;52.160;5.298;2024-03-25T19:50:28;14.10;45.40
43995;DHT22;51687;52.160;5.298;2024-03-25T19:52:53;14.00;45.70
43995;DHT22;51687;52.160;5.298;2024-03-25T19:55:19;14.00;45.40
43995;DHT22;51687;52.160;5.298;2024-03-25T19:57:45;14.00;46.60
43995;DHT22;51687;52.160;5.298;2024-03-25T20:00:12;13.90;45.90
43995;DHT22;51687;52.160;5.298;2024-03-25T20:02:38;13.90;45.20
43995;DHT22;51687;52.160;5.298;2024-03-25T20:05:04;13.90;45.70
43995;DHT22;51687;52.160;5.298;2024-03-25T20:07:31;13.80;45.60
43995;DHT22;51687;52.160;5.298;2024-03-25T20:09:57;13.80;45.90
43995;DHT22;51687;52.160;5.298;2024-03-25T20:12:23;13.80;46.20
43995;DHT22;51687;52.160;5.298;2024-03-25T20:14:50;13.80;45.50
43995;DHT22;51687;52.160;5.298;2024-03-25T20:17:16;13.80;45.60
43995;DHT22;51687;52.160;5.298;2024-03-25T20:27:01;13.70;44.60
43995;DHT22;51687;52.160;5.298;2024-03-25T20:29:27;13.70;45.20
43995;DHT22;51687;52.160;5.298;2024-03-25T20:31:52;13.60;44.60
43995;DHT22;51687;52.160;5.298;2024-03-25T20:34:18;13.60;44.80
43995;DHT22;51687;52.160;5.298;2024-03-25T20:36:44;13.60;45.20
43995;DHT22;51687;52.160;5.298;2024-03-25T20:39:10;13.60;45.10
43995;DHT22;51687;52.160;5.298;2024-03-25T20:41:37;13.50;45.70
43995;DHT22;51687;52.160;5.298;2024-03-25T20:44:03;13.50;45.40
43995;DHT22;51687;52.160;5.298;2024-03-25T20:46:29;13.50;45.20
43995;DHT22;51687;52.160;5.298;2024-03-25T20:48:55;13.50;45.00
43995;DHT22;51687;52.160;5.298;2024-03-25T20:51:20;13.50;44.90
43995;DHT22;51687;52.160;5.298;2024-03-25T20:53:46;13.40;45.10
43995;DHT22;51687;52.160;5.298;2024-03-25T20:56:12;13.40;45.90
43995;DHT22;51687;52.160;5.298;2024-03-25T20:58:38;13.40;44.80
43995;DHT22;51687;52.160;5.298;2024-03-25T21:01:04;13.40;45.20
43995;DHT22;51687;52.160;5.298;2024-03-25T21:03:31;13.30;44.90
43995;DHT22;51687;52.160;5.298;2024-03-25T21:05:57;13.30;45.50
43995;DHT22;51687;52.160;5.298;2024-03-25T21:08:24;13.30;45.00
43995;DHT22;51687;52.160;5.298;2024-03-25T21:10:50;13.30;45.60
43995;DHT22;51687;52.160;5.298;2024-03-25T21:13:16;13.40;45.20
43995;DHT22;51687;52.160;5.298;2024-03-25T21:15:42;13.40;44.90
43995;DHT22;51687;52.160;5.298;2024-03-25T21:18:08;13.40;44.90
43995;DHT22;51687;52.160;5.298;2024-03-25T21:20:34;13.40;44.90
43995;DHT22;51687;52.160;5.298;2024-03-25T21:23:01;13.40;44.50
43995;DHT22;51687;52.160;5.298;2024-03-25T21:25:27;13.40;45.00
43995;DHT22;51687;52.160;5.298;2024-03-25T21:27:53;13.40;44.70
43995;DHT22;51687;52.160;5.298;2024-03-25T21:30:19;13.50;44.30
43995;DHT22;51687;52.160;5.298;2024-03-25T21:32:45;13.50;44.50
43995;DHT22;51687;52.160;5.298;2024-03-25T21:35:11;13.50;44.90
43995;DHT22;51687;52.160;5.298;2024-03-25T21:37:37;13.50;44.70
43995;DHT22;51687;52.160;5.298;2024-03-25T21:40:02;13.50;44.50
43995;DHT22;51687;52.160;5.298;2024-03-25T21:42:30;13.50;44.70
43995;DHT22;51687;52.160;5.298;2024-03-25T21:44:58;13.50;44.50
43995;DHT22;51687;52.160;5.298;2024-03-25T21:47:26;13.50;45.30
43995;DHT22;51687;52.160;5.298;2024-03-25T21:49:52;13.60;44.40
43995;DHT22;51687;52.160;5.298;2024-03-25T21:52:18;13.60;44.40
43995;DHT22;51687;52.160;5.298;2024-03-25T21:54:45;13.60;45.00
43995;DHT22;51687;52.160;5.298;2024-03-25T21:57:12;13.60;44.60
43995;DHT22;51687;52.160;5.298;2024-03-25T21:59:38;13.60;44.30
43995;DHT22;51687;52.160;5.298;2024-03-25T22:02:04;13.60;44.40
43995;DHT22;51687;52.160;5.298;2024-03-25T22:04:31;13.60;44.30
43995;DHT22;51687;52.160;5.298;2024-03-25T22:06:56;13.60;44.30
43995;DHT22;51687;52.160;5.298;2024-03-25T22:09:25;13.50;44.70
43995;DHT22;51687;52.160;5.298;2024-03-25T22:11:52;13.60;44.50
43995;DHT22;51687;52.160;5.298;2024-03-25T22:14:17;13.60;44.70
43995;DHT22;51687;52.160;5.298;2024-03-25T22:16:43;13.50;44.30
43995;DHT22;51687;52.160;5.298;2024-03-25T22:19:09;13.50;44.40
43995;DHT22;51687;52.160;5.298;2024-03-25T22:21:35;13.50;45.00
43995;DHT22;51687;52.160;5.298;2024-03-25T22:24:01;13.50;44.40
43995;DHT22;51687;52.160;5.298;2024-03-25T22:26:26;13.40;44.80
43995;DHT22;51687;52.160;5.298;2024-03-25T22:28:52;13.40;44.80
43995;DHT22;51687;52.160;5.298;2024-03-25T22:31:18;13.40;45.00
43995;DHT22;51687;52.160;5.298;2024-03-25T22:33:44;13.40;45.50
43995;DHT22;51687;52.160;5.298;2024-03-25T22:36:10;13.40;45.00
43995;DHT22;51687;52.160;5.298;2024-03-25T22:38:35;13.40;45.10
43995;DHT22;51687;52.160;5.298;2024-03-25T22:41:01;13.30;44.90
43995;DHT22;51687;52.160;5.298;2024-03-25T22:43:27;13.30;44.80
43995;DHT22;51687;52.160;5.298;2024-03-25T22:45:55;13.30;45.00
43995;DHT22;51687;52.160;5.298;2024-03-25T22:48:21;13.30;45.10
43995;DHT22;51687;52.160;5.298;2024-03-25T22:53:26;13.30;45.40
43995;DHT22;51687;52.160;5.298;2024-03-25T22:56:02;13.30;45.40
43995;DHT22;51687;52.160;5.298;2024-03-25T23:35:33;13.30;45.30
43995;DHT22;51687;52.160;5.298;2024-03-25T23:38:00;13.00;45.80
43995;DHT22;51687;52.160;5.298;2024-03-25T23:40:26;13.00;45.80
43995;DHT22;51687;52.160;5.298;2024-03-25T23:42:52;13.00;46.00
43995;DHT22;51687;52.160;5.298;2024-03-25T23:45:17;12.90;45.90
43995;DHT22;51687;52.160;5.298;2024-03-25T23:47:44;12.90;45.90
43995;DHT22;51687;52.160;5.298;2024-03-25T23:50:09;12.90;46.10
43995;DHT22;51687;52.160;5.298;2024-03-25T23:52:35;12.90;46.50
43995;DHT22;51687;52.160;5.298;2024-03-25T23:55:02;12.80;46.30
43995;DHT22;51687;52.160;5.298;2024-03-25T23:57:29;12.90;46.60
43995;DHT22;51687;52.160;5.298;2024-03-25T23:59:55;12.80;46.50
